sensor_id;sensor_type;location;lat;lon;timestamp;P1;durP1;ratioP1;P2;durP2;ratioP2
46845;SDS011;33947;46.804;134.252;2024-03-08T00:03:03;89.25;;;38.72;;
46845;SDS011;33947;46.804;134.252;2024-03-08T00:06:13;78.75;;;35.92;;
46845;SDS011;33947;46.804;134.252;2024-03-08T00:09:22;67.95;;;32.13;;
46845;SDS011;33947;46.804;134.252;2024-03-08T00:12:31;55.28;;;25.58;;
46845;SDS011;33947;46.804;134.252;2024-03-08T00:15:41;50.45;;;23.15;;
46845;SDS011;33947;46.804;134.252;2024-03-08T00:18:51;35.00;;;17.05;;
46845;SDS011;33947;46.804;134.252;2024-03-08T00:21:59;46.10;;;21.00;;
46845;SDS011;33947;46.804;134.252;2024-03-08T00:25:06;49.22;;;22.95;;
46845;SDS011;33947;46.804;134.252;2024-03-08T00:28:14;59.13;;;23.98;;
46845;SDS011;33947;46.804;134.252;2024-03-08T00:31:22;59.30;;;24.90;;
46845;SDS011;33947;46.804;134.252;2024-03-08T00:34:31;57.97;;;26.50;;
46845;SDS011;33947;46.804;134.252;2024-03-08T00:37:39;58.85;;;27.00;;
46845;SDS011;33947;46.804;134.252;2024-03-08T00:40:46;114.93;;;52.90;;
46845;SDS011;33947;46.804;134.252;2024-03-08T00:43:56;56.17;;;27.60;;
46845;SDS011;33947;46.804;134.252;2024-03-08T00:47:03;54.15;;;24.95;;
46845;SDS011;33947;46.804;134.252;2024-03-08T00:50:11;62.00;;;26.08;;
46845;SDS011;33947;46.804;134.252;2024-03-08T00:53:19;143.40;;;41.75;;
46845;SDS011;33947;46.804;134.252;2024-03-08T00:56:26;77.15;;;27.90;;
46845;SDS011;33947;46.804;134.252;2024-03-08T00:59:33;55.90;;;23.27;;
46845;SDS011;33947;46.804;134.252;2024-03-08T01:02:40;65.88;;;24.15;;
46845;SDS011;33947;46.804;134.252;2024-03-08T01:05:50;64.35;;;22.90;;
46845;SDS011;33947;46.804;134.252;2024-03-08T01:08:57;48.70;;;20.20;;
46845;SDS011;33947;46.804;134.252;2024-03-08T01:12:04;47.63;;;18.50;;
46845;SDS011;33947;46.804;134.252;2024-03-08T01:15:11;43.30;;;20.63;;
46845;SDS011;33947;46.804;134.252;2024-03-08T01:18:18;52.10;;;23.02;;
46845;SDS011;33947;46.804;134.252;2024-03-08T01:21:28;127.68;;;58.53;;
46845;SDS011;33947;46.804;134.252;2024-03-08T01:24:35;86.68;;;26.83;;
46845;SDS011;33947;46.804;134.252;2024-03-08T01:27:42;53.08;;;22.23;;
46845;SDS011;33947;46.804;134.252;2024-03-08T01:30:49;39.85;;;18.38;;
46845;SDS011;33947;46.804;134.252;2024-03-08T01:34:00;56.60;;;23.90;;
46845;SDS011;33947;46.804;134.252;2024-03-08T01:37:08;53.22;;;23.95;;
46845;SDS011;33947;46.804;134.252;2024-03-08T01:40:15;37.88;;;18.10;;
46845;SDS011;33947;46.804;134.252;2024-03-08T01:43:25;41.50;;;18.98;;
46845;SDS011;33947;46.804;134.252;2024-03-08T01:46:35;50.65;;;22.23;;
46845;SDS011;33947;46.804;134.252;2024-03-08T01:50:08;34.03;;;16.80;;
46845;SDS011;33947;46.804;134.252;2024-03-08T01:53:20;33.03;;;16.60;;
46845;SDS011;33947;46.804;134.252;2024-03-08T01:56:30;30.77;;;15.20;;
46845;SDS011;33947;46.804;134.252;2024-03-08T01:59:37;32.22;;;15.73;;
46845;SDS011;33947;46.804;134.252;2024-03-08T02:02:44;32.42;;;17.95;;
46845;SDS011;33947;46.804;134.252;2024-03-08T02:05:56;37.97;;;21.75;;
46845;SDS011;33947;46.804;134.252;2024-03-08T02:09:06;48.40;;;23.42;;
46845;SDS011;33947;46.804;134.252;2024-03-08T02:12:16;41.40;;;19.52;;
46845;SDS011;33947;46.804;134.252;2024-03-08T02:15:25;28.65;;;14.10;;
46845;SDS011;33947;46.804;134.252;2024-03-08T02:18:32;27.30;;;12.63;;
46845;SDS011;33947;46.804;134.252;2024-03-08T02:21:42;41.45;;;18.52;;
46845;SDS011;33947;46.804;134.252;2024-03-08T02:24:54;49.67;;;24.33;;
46845;SDS011;33947;46.804;134.252;2024-03-08T02:28:02;33.10;;;15.88;;
46845;SDS011;33947;46.804;134.252;2024-03-08T02:31:11;43.45;;;15.50;;
46845;SDS011;33947;46.804;134.252;2024-03-08T02:34:24;59.17;;;21.60;;
46845;SDS011;33947;46.804;134.252;2024-03-08T02:37:33;19.15;;;8.68;;
46845;SDS011;33947;46.804;134.252;2024-03-08T02:40:39;19.88;;;8.88;;
46845;SDS011;33947;46.804;134.252;2024-03-08T02:43:48;8.90;;;5.03;;
46845;SDS011;33947;46.804;134.252;2024-03-08T02:46:57;19.38;;;7.25;;
46845;SDS011;33947;46.804;134.252;2024-03-08T02:50:15;6.68;;;4.38;;
46845;SDS011;33947;46.804;134.252;2024-03-08T02:53:27;8.85;;;4.78;;
46845;SDS011;33947;46.804;134.252;2024-03-08T02:56:35;9.60;;;4.40;;
46845;SDS011;33947;46.804;134.252;2024-03-08T02:59:42;8.23;;;3.88;;
46845;SDS011;33947;46.804;134.252;2024-03-08T03:02:50;8.52;;;4.50;;
46845;SDS011;33947;46.804;134.252;2024-03-08T03:05:58;6.05;;;3.50;;
46845;SDS011;33947;46.804;134.252;2024-03-08T03:09:06;7.35;;;3.40;;
46845;SDS011;33947;46.804;134.252;2024-03-08T03:12:14;7.60;;;3.88;;
46845;SDS011;33947;46.804;134.252;2024-03-08T03:15:22;8.38;;;4.45;;
46845;SDS011;33947;46.804;134.252;2024-03-08T03:18:30;8.15;;;4.65;;
46845;SDS011;33947;46.804;134.252;2024-03-08T03:21:38;10.50;;;5.22;;
46845;SDS011;33947;46.804;134.252;2024-03-08T03:24:49;35.47;;;13.63;;
46845;SDS011;33947;46.804;134.252;2024-03-08T03:27:57;13.25;;;6.43;;
46845;SDS011;33947;46.804;134.252;2024-03-08T03:31:05;12.98;;;6.35;;
46845;SDS011;33947;46.804;134.252;2024-03-08T03:34:13;14.30;;;6.45;;
46845;SDS011;33947;46.804;134.252;2024-03-08T03:37:21;29.05;;;10.40;;
46845;SDS011;33947;46.804;134.252;2024-03-08T03:40:30;14.98;;;7.03;;
46845;SDS011;33947;46.804;134.252;2024-03-08T03:43:37;8.38;;;4.80;;
46845;SDS011;33947;46.804;134.252;2024-03-08T03:46:44;68.30;;;21.75;;
46845;SDS011;33947;46.804;134.252;2024-03-08T03:49:51;34.10;;;27.95;;
46845;SDS011;33947;46.804;134.252;2024-03-08T03:52:59;9.98;;;6.03;;
46845;SDS011;33947;46.804;134.252;2024-03-08T03:56:10;12.35;;;5.53;;
46845;SDS011;33947;46.804;134.252;2024-03-08T03:59:17;7.30;;;4.75;;
46845;SDS011;33947;46.804;134.252;2024-03-08T04:02:24;7.70;;;3.78;;
46845;SDS011;33947;46.804;134.252;2024-03-08T04:05:32;19.30;;;8.35;;
46845;SDS011;33947;46.804;134.252;2024-03-08T04:08:39;13.32;;;5.40;;
46845;SDS011;33947;46.804;134.252;2024-03-08T04:11:48;10.57;;;4.75;;
46845;SDS011;33947;46.804;134.252;2024-03-08T04:14:57;6.97;;;3.80;;
46845;SDS011;33947;46.804;134.252;2024-03-08T04:18:08;7.88;;;4.47;;
46845;SDS011;33947;46.804;134.252;2024-03-08T04:21:15;21.35;;;9.05;;
46845;SDS011;33947;46.804;134.252;2024-03-08T04:24:23;11.65;;;4.63;;
46845;SDS011;33947;46.804;134.252;2024-03-08T04:27:31;10.35;;;4.75;;
46845;SDS011;33947;46.804;134.252;2024-03-08T04:30:39;10.13;;;3.35;;
46845;SDS011;33947;46.804;134.252;2024-03-08T04:33:47;9.73;;;3.80;;
46845;SDS011;33947;46.804;134.252;2024-03-08T04:36:54;9.52;;;5.07;;
46845;SDS011;33947;46.804;134.252;2024-03-08T04:40:04;12.35;;;8.05;;
46845;SDS011;33947;46.804;134.252;2024-03-08T04:43:13;6.32;;;4.03;;
46845;SDS011;33947;46.804;134.252;2024-03-08T04:46:23;7.30;;;3.63;;
46845;SDS011;33947;46.804;134.252;2024-03-08T04:49:30;6.07;;;3.88;;
46845;SDS011;33947;46.804;134.252;2024-03-08T04:52:38;6.35;;;3.10;;
46845;SDS011;33947;46.804;134.252;2024-03-08T04:55:45;5.97;;;3.78;;
46845;SDS011;33947;46.804;134.252;2024-03-08T04:58:54;4.68;;;2.97;;
46845;SDS011;33947;46.804;134.252;2024-03-08T05:02:01;5.68;;;3.22;;
46845;SDS011;33947;46.804;134.252;2024-03-08T05:05:08;5.03;;;2.88;;
46845;SDS011;33947;46.804;134.252;2024-03-08T05:08:17;5.15;;;3.10;;
46845;SDS011;33947;46.804;134.252;2024-03-08T05:11:24;8.50;;;4.60;;
46845;SDS011;33947;46.804;134.252;2024-03-08T05:14:33;6.03;;;3.20;;
46845;SDS011;33947;46.804;134.252;2024-03-08T05:17:40;5.35;;;2.85;;
46845;SDS011;33947;46.804;134.252;2024-03-08T05:20:48;6.07;;;3.30;;
46845;SDS011;33947;46.804;134.252;2024-03-08T05:23:55;3.92;;;3.00;;
46845;SDS011;33947;46.804;134.252;2024-03-08T05:27:01;11.13;;;4.13;;
46845;SDS011;33947;46.804;134.252;2024-03-08T05:30:11;5.55;;;2.85;;
46845;SDS011;33947;46.804;134.252;2024-03-08T05:33:19;8.70;;;3.63;;
46845;SDS011;33947;46.804;134.252;2024-03-08T05:36:26;6.72;;;4.20;;
46845;SDS011;33947;46.804;134.252;2024-03-08T05:39:33;11.15;;;3.63;;
46845;SDS011;33947;46.804;134.252;2024-03-08T05:42:41;6.47;;;3.55;;
46845;SDS011;33947;46.804;134.252;2024-03-08T05:45:50;6.78;;;3.53;;
46845;SDS011;33947;46.804;134.252;2024-03-08T05:48:56;5.28;;;3.60;;
46845;SDS011;33947;46.804;134.252;2024-03-08T05:52:04;7.75;;;4.80;;
46845;SDS011;33947;46.804;134.252;2024-03-08T05:55:11;4.75;;;3.22;;
46845;SDS011;33947;46.804;134.252;2024-03-08T05:58:19;9.43;;;6.13;;
46845;SDS011;33947;46.804;134.252;2024-03-08T06:01:28;7.32;;;4.70;;
46845;SDS011;33947;46.804;134.252;2024-03-08T06:04:46;9.18;;;5.63;;
46845;SDS011;33947;46.804;134.252;2024-03-08T06:07:59;8.60;;;5.68;;
46845;SDS011;33947;46.804;134.252;2024-03-08T06:11:11;7.20;;;4.45;;
46845;SDS011;33947;46.804;134.252;2024-03-08T06:14:22;10.43;;;3.58;;
46845;SDS011;33947;46.804;134.252;2024-03-08T06:17:31;9.13;;;4.43;;
46845;SDS011;33947;46.804;134.252;2024-03-08T06:20:39;12.60;;;8.52;;
46845;SDS011;33947;46.804;134.252;2024-03-08T06:23:50;14.45;;;4.55;;
46845;SDS011;33947;46.804;134.252;2024-03-08T06:27:02;8.57;;;4.32;;
46845;SDS011;33947;46.804;134.252;2024-03-08T06:30:12;9.85;;;5.22;;
46845;SDS011;33947;46.804;134.252;2024-03-08T06:33:24;6.45;;;5.05;;
46845;SDS011;33947;46.804;134.252;2024-03-08T06:36:32;6.07;;;3.95;;
46845;SDS011;33947;46.804;134.252;2024-03-08T06:39:38;4.82;;;3.20;;
46845;SDS011;33947;46.804;134.252;2024-03-08T06:42:45;4.53;;;2.75;;
46845;SDS011;33947;46.804;134.252;2024-03-08T06:45:53;4.80;;;3.13;;
46845;SDS011;33947;46.804;134.252;2024-03-08T06:49:08;8.95;;;4.72;;
46845;SDS011;33947;46.804;134.252;2024-03-08T06:52:15;8.30;;;5.13;;
46845;SDS011;33947;46.804;134.252;2024-03-08T06:55:25;8.82;;;3.55;;
46845;SDS011;33947;46.804;134.252;2024-03-08T06:58:32;6.30;;;3.88;;
46845;SDS011;33947;46.804;134.252;2024-03-08T07:01:39;10.38;;;5.35;;
46845;SDS011;33947;46.804;134.252;2024-03-08T07:04:48;11.10;;;7.15;;
46845;SDS011;33947;46.804;134.252;2024-03-08T07:07:56;15.60;;;7.30;;
46845;SDS011;33947;46.804;134.252;2024-03-08T07:11:04;12.90;;;6.10;;
46845;SDS011;33947;46.804;134.252;2024-03-08T07:14:12;11.18;;;4.88;;
46845;SDS011;33947;46.804;134.252;2024-03-08T07:17:20;8.65;;;4.22;;
46845;SDS011;33947;46.804;134.252;2024-03-08T07:20:30;12.38;;;6.40;;
46845;SDS011;33947;46.804;134.252;2024-03-08T07:23:38;13.75;;;7.18;;
46845;SDS011;33947;46.804;134.252;2024-03-08T07:27:13;10.95;;;5.22;;
46845;SDS011;33947;46.804;134.252;2024-03-08T07:30:21;10.23;;;4.63;;
46845;SDS011;33947;46.804;134.252;2024-03-08T07:33:47;8.60;;;5.17;;
46845;SDS011;33947;46.804;134.252;2024-03-08T07:36:56;17.70;;;8.50;;
46845;SDS011;33947;46.804;134.252;2024-03-08T07:40:04;9.02;;;4.65;;
46845;SDS011;33947;46.804;134.252;2024-03-08T07:43:11;10.38;;;6.50;;
46845;SDS011;33947;46.804;134.252;2024-03-08T07:46:18;23.92;;;13.35;;
46845;SDS011;33947;46.804;134.252;2024-03-08T07:49:25;63.15;;;29.30;;
46845;SDS011;33947;46.804;134.252;2024-03-08T07:52:34;50.53;;;24.20;;
46845;SDS011;33947;46.804;134.252;2024-03-08T07:55:41;23.58;;;11.70;;
46845;SDS011;33947;46.804;134.252;2024-03-08T07:58:50;89.72;;;34.10;;
46845;SDS011;33947;46.804;134.252;2024-03-08T08:01:59;22.35;;;12.75;;
46845;SDS011;33947;46.804;134.252;2024-03-08T08:05:07;24.90;;;15.25;;
46845;SDS011;33947;46.804;134.252;2024-03-08T08:08:27;11.68;;;6.35;;
46845;SDS011;33947;46.804;134.252;2024-03-08T08:11:36;17.27;;;8.82;;
46845;SDS011;33947;46.804;134.252;2024-03-08T08:14:45;24.33;;;11.80;;
46845;SDS011;33947;46.804;134.252;2024-03-08T08:17:52;31.63;;;13.88;;
46845;SDS011;33947;46.804;134.252;2024-03-08T08:20:59;19.08;;;10.75;;
46845;SDS011;33947;46.804;134.252;2024-03-08T08:24:08;16.80;;;9.10;;
46845;SDS011;33947;46.804;134.252;2024-03-08T08:27:18;21.20;;;12.07;;
46845;SDS011;33947;46.804;134.252;2024-03-08T08:30:29;70.65;;;40.83;;
46845;SDS011;33947;46.804;134.252;2024-03-08T08:33:38;29.23;;;19.85;;
46845;SDS011;33947;46.804;134.252;2024-03-08T08:36:45;20.02;;;12.45;;
46845;SDS011;33947;46.804;134.252;2024-03-08T08:39:57;69.90;;;34.67;;
46845;SDS011;33947;46.804;134.252;2024-03-08T08:43:16;38.72;;;21.15;;
46845;SDS011;33947;46.804;134.252;2024-03-08T08:46:25;15.23;;;11.32;;
46845;SDS011;33947;46.804;134.252;2024-03-08T08:49:32;11.20;;;7.35;;
46845;SDS011;33947;46.804;134.252;2024-03-08T08:52:42;13.68;;;8.00;;
46845;SDS011;33947;46.804;134.252;2024-03-08T08:55:51;12.00;;;7.88;;
46845;SDS011;33947;46.804;134.252;2024-03-08T08:58:59;22.45;;;9.93;;
46845;SDS011;33947;46.804;134.252;2024-03-08T09:02:10;34.78;;;13.82;;
46845;SDS011;33947;46.804;134.252;2024-03-08T09:05:21;29.40;;;13.32;;
46845;SDS011;33947;46.804;134.252;2024-03-08T09:08:32;26.25;;;13.63;;
46845;SDS011;33947;46.804;134.252;2024-03-08T09:11:41;21.17;;;10.82;;
46845;SDS011;33947;46.804;134.252;2024-03-08T09:14:53;46.75;;;23.95;;
46845;SDS011;33947;46.804;134.252;2024-03-08T09:17:59;24.30;;;12.98;;
46845;SDS011;33947;46.804;134.252;2024-03-08T09:21:06;18.00;;;11.27;;
46845;SDS011;33947;46.804;134.252;2024-03-08T09:24:17;19.20;;;10.05;;
46845;SDS011;33947;46.804;134.252;2024-03-08T09:27:26;14.75;;;9.18;;
46845;SDS011;33947;46.804;134.252;2024-03-08T09:30:43;35.20;;;12.82;;
46845;SDS011;33947;46.804;134.252;2024-03-08T09:34:01;22.60;;;9.95;;
46845;SDS011;33947;46.804;134.252;2024-03-08T09:37:08;15.05;;;8.43;;
46845;SDS011;33947;46.804;134.252;2024-03-08T09:40:16;17.55;;;8.70;;
46845;SDS011;33947;46.804;134.252;2024-03-08T09:43:28;16.95;;;8.18;;
46845;SDS011;33947;46.804;134.252;2024-03-08T09:46:37;17.67;;;7.55;;
46845;SDS011;33947;46.804;134.252;2024-03-08T09:49:48;17.15;;;6.75;;
46845;SDS011;33947;46.804;134.252;2024-03-08T09:52:56;18.67;;;7.07;;
46845;SDS011;33947;46.804;134.252;2024-03-08T09:56:05;21.00;;;8.82;;
46845;SDS011;33947;46.804;134.252;2024-03-08T09:59:14;26.92;;;11.63;;
46845;SDS011;33947;46.804;134.252;2024-03-08T10:02:47;22.90;;;10.70;;
46845;SDS011;33947;46.804;134.252;2024-03-08T10:05:56;39.88;;;15.82;;
46845;SDS011;33947;46.804;134.252;2024-03-08T10:09:05;37.67;;;14.93;;
46845;SDS011;33947;46.804;134.252;2024-03-08T10:12:14;41.88;;;14.25;;
46845;SDS011;33947;46.804;134.252;2024-03-08T10:15:25;31.63;;;11.75;;
46845;SDS011;33947;46.804;134.252;2024-03-08T10:18:37;33.95;;;11.50;;
46845;SDS011;33947;46.804;134.252;2024-03-08T10:21:48;27.15;;;9.60;;
46845;SDS011;33947;46.804;134.252;2024-03-08T10:24:57;51.63;;;17.35;;
46845;SDS011;33947;46.804;134.252;2024-03-08T10:28:04;31.90;;;12.40;;
46845;SDS011;33947;46.804;134.252;2024-03-08T10:31:14;29.58;;;13.40;;
46845;SDS011;33947;46.804;134.252;2024-03-08T10:34:22;31.45;;;14.15;;
46845;SDS011;33947;46.804;134.252;2024-03-08T10:37:29;42.80;;;20.60;;
46845;SDS011;33947;46.804;134.252;2024-03-08T10:40:37;64.35;;;28.15;;
46845;SDS011;33947;46.804;134.252;2024-03-08T10:43:54;38.08;;;18.42;;
46845;SDS011;33947;46.804;134.252;2024-03-08T10:47:21;39.00;;;17.15;;
46845;SDS011;33947;46.804;134.252;2024-03-08T10:50:35;21.35;;;9.82;;
46845;SDS011;33947;46.804;134.252;2024-03-08T10:53:42;21.60;;;9.50;;
46845;SDS011;33947;46.804;134.252;2024-03-08T10:56:52;21.95;;;9.90;;
46845;SDS011;33947;46.804;134.252;2024-03-08T10:59:59;26.27;;;11.30;;
46845;SDS011;33947;46.804;134.252;2024-03-08T11:07:00;27.02;;;12.25;;
46845;SDS011;33947;46.804;134.252;2024-03-08T11:10:18;33.70;;;16.20;;
46845;SDS011;33947;46.804;134.252;2024-03-08T11:13:32;105.57;;;40.55;;
46845;SDS011;33947;46.804;134.252;2024-03-08T11:16:40;112.80;;;43.10;;
46845;SDS011;33947;46.804;134.252;2024-03-08T11:19:52;76.82;;;31.13;;
46845;SDS011;33947;46.804;134.252;2024-03-08T11:23:06;73.05;;;28.35;;
46845;SDS011;33947;46.804;134.252;2024-03-08T11:26:18;76.68;;;27.85;;
46845;SDS011;33947;46.804;134.252;2024-03-08T11:29:33;67.68;;;27.23;;
46845;SDS011;33947;46.804;134.252;2024-03-08T11:32:44;70.55;;;27.58;;
46845;SDS011;33947;46.804;134.252;2024-03-08T11:35:53;58.65;;;24.38;;
46845;SDS011;33947;46.804;134.252;2024-03-08T11:39:11;54.55;;;23.35;;
46845;SDS011;33947;46.804;134.252;2024-03-08T11:42:19;46.47;;;21.80;;
46845;SDS011;33947;46.804;134.252;2024-03-08T11:45:26;46.88;;;20.80;;
46845;SDS011;33947;46.804;134.252;2024-03-08T11:48:33;51.00;;;24.08;;
46845;SDS011;33947;46.804;134.252;2024-03-08T11:51:42;46.67;;;21.58;;
46845;SDS011;33947;46.804;134.252;2024-03-08T11:54:51;45.03;;;20.20;;
46845;SDS011;33947;46.804;134.252;2024-03-08T11:58:02;51.03;;;21.85;;
46845;SDS011;33947;46.804;134.252;2024-03-08T12:01:09;51.58;;;18.45;;
46845;SDS011;33947;46.804;134.252;2024-03-08T12:04:17;41.88;;;16.40;;
46845;SDS011;33947;46.804;134.252;2024-03-08T12:07:30;44.05;;;17.30;;
46845;SDS011;33947;46.804;134.252;2024-03-08T12:10:38;36.25;;;16.90;;
46845;SDS011;33947;46.804;134.252;2024-03-08T12:13:46;48.70;;;21.02;;
46845;SDS011;33947;46.804;134.252;2024-03-08T12:16:55;69.20;;;23.30;;
46845;SDS011;33947;46.804;134.252;2024-03-08T12:20:11;84.80;;;27.90;;
46845;SDS011;33947;46.804;134.252;2024-03-08T12:26:29;78.90;;;28.27;;
46845;SDS011;33947;46.804;134.252;2024-03-08T12:29:37;87.50;;;32.00;;
46845;SDS011;33947;46.804;134.252;2024-03-08T12:32:46;85.53;;;31.23;;
46845;SDS011;33947;46.804;134.252;2024-03-08T12:35:55;81.95;;;32.55;;
46845;SDS011;33947;46.804;134.252;2024-03-08T12:39:05;111.70;;;34.90;;
46845;SDS011;33947;46.804;134.252;2024-03-08T12:42:16;101.10;;;32.67;;
46845;SDS011;33947;46.804;134.252;2024-03-08T12:45:23;104.35;;;37.38;;
46845;SDS011;33947;46.804;134.252;2024-03-08T12:48:34;107.32;;;37.80;;
46845;SDS011;33947;46.804;134.252;2024-03-08T12:51:44;97.95;;;34.63;;
46845;SDS011;33947;46.804;134.252;2024-03-08T12:54:54;116.30;;;39.53;;
46845;SDS011;33947;46.804;134.252;2024-03-08T12:58:00;126.53;;;45.47;;
46845;SDS011;33947;46.804;134.252;2024-03-08T13:01:07;156.43;;;55.15;;
46845;SDS011;33947;46.804;134.252;2024-03-08T13:04:15;143.82;;;50.38;;
46845;SDS011;33947;46.804;134.252;2024-03-08T13:07:22;122.13;;;41.72;;
46845;SDS011;33947;46.804;134.252;2024-03-08T13:10:31;128.25;;;47.72;;
46845;SDS011;33947;46.804;134.252;2024-03-08T13:13:39;116.32;;;47.60;;
46845;SDS011;33947;46.804;134.252;2024-03-08T13:16:46;119.43;;;44.22;;
46845;SDS011;33947;46.804;134.252;2024-03-08T13:19:55;630.78;;;160.15;;
46845;SDS011;33947;46.804;134.252;2024-03-08T13:23:03;243.70;;;68.40;;
46845;SDS011;33947;46.804;134.252;2024-03-08T13:26:14;330.77;;;92.35;;
46845;SDS011;33947;46.804;134.252;2024-03-08T13:29:21;118.28;;;42.13;;
46845;SDS011;33947;46.804;134.252;2024-03-08T13:32:29;79.78;;;30.80;;
46845;SDS011;33947;46.804;134.252;2024-03-08T13:35:36;81.72;;;29.75;;
46845;SDS011;33947;46.804;134.252;2024-03-08T13:38:45;72.80;;;28.30;;
46845;SDS011;33947;46.804;134.252;2024-03-08T13:41:55;89.00;;;32.58;;
46845;SDS011;33947;46.804;134.252;2024-03-08T13:45:02;74.78;;;25.30;;
46845;SDS011;33947;46.804;134.252;2024-03-08T13:48:11;106.80;;;39.38;;
46845;SDS011;33947;46.804;134.252;2024-03-08T13:51:18;91.63;;;33.83;;
46845;SDS011;33947;46.804;134.252;2024-03-08T13:54:26;90.40;;;33.13;;
46845;SDS011;33947;46.804;134.252;2024-03-08T13:57:37;76.22;;;25.83;;
46845;SDS011;33947;46.804;134.252;2024-03-08T14:00:44;132.50;;;42.88;;
46845;SDS011;33947;46.804;134.252;2024-03-08T14:03:52;75.45;;;25.92;;
46845;SDS011;33947;46.804;134.252;2024-03-08T14:06:59;67.78;;;24.63;;
46845;SDS011;33947;46.804;134.252;2024-03-08T14:10:08;40.47;;;16.95;;
46845;SDS011;33947;46.804;134.252;2024-03-08T14:13:18;63.67;;;25.70;;
46845;SDS011;33947;46.804;134.252;2024-03-08T14:16:25;75.78;;;23.52;;
46845;SDS011;33947;46.804;134.252;2024-03-08T14:19:32;57.38;;;21.92;;
46845;SDS011;33947;46.804;134.252;2024-03-08T14:22:39;106.93;;;33.17;;
46845;SDS011;33947;46.804;134.252;2024-03-08T14:25:46;81.82;;;26.20;;
46845;SDS011;33947;46.804;134.252;2024-03-08T14:28:59;82.97;;;28.98;;
46845;SDS011;33947;46.804;134.252;2024-03-08T14:32:07;98.53;;;32.95;;
46845;SDS011;33947;46.804;134.252;2024-03-08T14:35:16;55.97;;;20.95;;
46845;SDS011;33947;46.804;134.252;2024-03-08T14:38:24;68.75;;;21.20;;
46845;SDS011;33947;46.804;134.252;2024-03-08T14:41:32;65.13;;;20.67;;
46845;SDS011;33947;46.804;134.252;2024-03-08T14:44:41;53.50;;;18.45;;
46845;SDS011;33947;46.804;134.252;2024-03-08T14:47:52;52.60;;;18.48;;
46845;SDS011;33947;46.804;134.252;2024-03-08T14:50:59;54.63;;;20.27;;
46845;SDS011;33947;46.804;134.252;2024-03-08T14:54:07;61.00;;;20.33;;
46845;SDS011;33947;46.804;134.252;2024-03-08T14:57:15;70.70;;;20.98;;
46845;SDS011;33947;46.804;134.252;2024-03-08T15:00:24;39.72;;;15.32;;
46845;SDS011;33947;46.804;134.252;2024-03-08T15:03:38;40.45;;;16.15;;
46845;SDS011;33947;46.804;134.252;2024-03-08T15:06:46;42.72;;;17.50;;
46845;SDS011;33947;46.804;134.252;2024-03-08T15:09:54;43.15;;;15.38;;
46845;SDS011;33947;46.804;134.252;2024-03-08T15:13:02;50.17;;;18.85;;
46845;SDS011;33947;46.804;134.252;2024-03-08T15:16:20;66.18;;;22.63;;
46845;SDS011;33947;46.804;134.252;2024-03-08T15:19:27;65.55;;;24.98;;
46845;SDS011;33947;46.804;134.252;2024-03-08T15:22:35;83.65;;;29.42;;
46845;SDS011;33947;46.804;134.252;2024-03-08T15:25:43;93.68;;;31.65;;
46845;SDS011;33947;46.804;134.252;2024-03-08T15:28:52;95.45;;;33.90;;
46845;SDS011;33947;46.804;134.252;2024-03-08T15:32:02;108.25;;;36.97;;
46845;SDS011;33947;46.804;134.252;2024-03-08T15:35:11;102.90;;;35.45;;
46845;SDS011;33947;46.804;134.252;2024-03-08T15:38:18;82.18;;;27.52;;
46845;SDS011;33947;46.804;134.252;2024-03-08T15:41:26;75.07;;;25.38;;
46845;SDS011;33947;46.804;134.252;2024-03-08T15:44:34;61.65;;;22.25;;
46845;SDS011;33947;46.804;134.252;2024-03-08T15:47:43;75.13;;;23.50;;
46845;SDS011;33947;46.804;134.252;2024-03-08T15:50:50;73.10;;;27.13;;
46845;SDS011;33947;46.804;134.252;2024-03-08T15:53:57;87.72;;;28.27;;
46845;SDS011;33947;46.804;134.252;2024-03-08T15:57:04;78.65;;;30.58;;
46845;SDS011;33947;46.804;134.252;2024-03-08T16:00:14;81.35;;;29.25;;
46845;SDS011;33947;46.804;134.252;2024-03-08T16:03:39;89.43;;;31.92;;
46845;SDS011;33947;46.804;134.252;2024-03-08T16:06:46;55.33;;;24.05;;
46845;SDS011;33947;46.804;134.252;2024-03-08T16:09:53;76.13;;;26.23;;
46845;SDS011;33947;46.804;134.252;2024-03-08T16:13:00;52.45;;;21.23;;
46845;SDS011;33947;46.804;134.252;2024-03-08T16:16:08;49.63;;;21.25;;
46845;SDS011;33947;46.804;134.252;2024-03-08T16:19:18;59.33;;;22.65;;
46845;SDS011;33947;46.804;134.252;2024-03-08T16:22:26;42.17;;;15.98;;
46845;SDS011;33947;46.804;134.252;2024-03-08T16:25:35;120.30;;;35.05;;
46845;SDS011;33947;46.804;134.252;2024-03-08T16:28:42;114.25;;;29.92;;
46845;SDS011;33947;46.804;134.252;2024-03-08T16:31:50;52.13;;;18.13;;
46845;SDS011;33947;46.804;134.252;2024-03-08T16:34:59;59.00;;;21.02;;
46845;SDS011;33947;46.804;134.252;2024-03-08T16:38:07;45.70;;;18.45;;
46845;SDS011;33947;46.804;134.252;2024-03-08T16:41:17;43.97;;;17.60;;
46845;SDS011;33947;46.804;134.252;2024-03-08T16:44:25;110.85;;;33.75;;
46845;SDS011;33947;46.804;134.252;2024-03-08T16:47:33;109.50;;;35.40;;
46845;SDS011;33947;46.804;134.252;2024-03-08T16:50:45;97.75;;;32.55;;
46845;SDS011;33947;46.804;134.252;2024-03-08T16:53:52;134.38;;;34.50;;
46845;SDS011;33947;46.804;134.252;2024-03-08T16:56:59;87.47;;;27.38;;
46845;SDS011;33947;46.804;134.252;2024-03-08T17:00:07;77.10;;;27.40;;
46845;SDS011;33947;46.804;134.252;2024-03-08T17:03:17;78.65;;;25.50;;
46845;SDS011;33947;46.804;134.252;2024-03-08T17:06:26;80.50;;;24.95;;
46845;SDS011;33947;46.804;134.252;2024-03-08T17:09:34;86.65;;;27.20;;
46845;SDS011;33947;46.804;134.252;2024-03-08T17:12:41;66.38;;;22.38;;
46845;SDS011;33947;46.804;134.252;2024-03-08T17:15:49;66.97;;;21.77;;
46845;SDS011;33947;46.804;134.252;2024-03-08T17:18:57;55.60;;;20.70;;
46845;SDS011;33947;46.804;134.252;2024-03-08T17:22:06;64.65;;;20.88;;
46845;SDS011;33947;46.804;134.252;2024-03-08T17:25:14;109.55;;;27.70;;
46845;SDS011;33947;46.804;134.252;2024-03-08T17:28:24;501.05;;;84.10;;
46845;SDS011;33947;46.804;134.252;2024-03-08T17:31:31;275.52;;;51.92;;
46845;SDS011;33947;46.804;134.252;2024-03-08T17:34:39;395.65;;;75.32;;
46845;SDS011;33947;46.804;134.252;2024-03-08T17:37:49;379.45;;;71.47;;
46845;SDS011;33947;46.804;134.252;2024-03-08T17:40:57;288.73;;;52.00;;
46845;SDS011;33947;46.804;134.252;2024-03-08T17:44:04;101.57;;;31.48;;
46845;SDS011;33947;46.804;134.252;2024-03-08T17:47:13;89.53;;;30.67;;
46845;SDS011;33947;46.804;134.252;2024-03-08T17:50:23;68.55;;;23.65;;
46845;SDS011;33947;46.804;134.252;2024-03-08T17:53:31;85.78;;;25.58;;
46845;SDS011;33947;46.804;134.252;2024-03-08T17:56:38;77.35;;;24.92;;
46845;SDS011;33947;46.804;134.252;2024-03-08T17:59:45;102.43;;;29.42;;
46845;SDS011;33947;46.804;134.252;2024-03-08T18:02:53;159.05;;;35.30;;
46845;SDS011;33947;46.804;134.252;2024-03-08T18:06:00;139.55;;;34.80;;
46845;SDS011;33947;46.804;134.252;2024-03-08T18:09:12;132.20;;;30.50;;